createdAt,value
2023-04-21T00:02:08.739Z,27.42
2023-04-21T00:04:36.560Z,24.60
2023-04-21T00:07:04.507Z,27.73
2023-04-21T00:09:32.124Z,25.60
2023-04-21T00:11:59.828Z,28.45
2023-04-21T00:14:27.493Z,28.60
2023-04-21T00:16:55.200Z,28.77
2023-04-21T00:19:23.840Z,28.55
2023-04-21T00:21:51.630Z,32.42
2023-04-21T00:24:19.285Z,30.70
2023-04-21T00:26:46.881Z,30.63
2023-04-21T00:29:14.685Z,29.65
2023-04-21T00:31:42.519Z,30.00
2023-04-21T00:34:10.605Z,32.17
2023-04-21T00:36:38.261Z,31.30
2023-04-21T00:39:06.248Z,32.50
2023-04-21T00:41:35.414Z,35.85
2023-04-21T00:44:09.799Z,33.15
2023-04-21T00:46:38.729Z,31.42
2023-04-21T00:49:07.976Z,33.80
2023-04-21T00:51:37.800Z,34.83
2023-04-21T00:54:07.996Z,32.47
2023-04-21T00:56:36.719Z,35.83
2023-04-21T00:59:04.633Z,37.28
2023-04-21T01:01:34.299Z,34.85
2023-04-21T01:04:04.762Z,36.47
2023-04-21T01:06:34.235Z,38.42
2023-04-21T01:09:04.804Z,38.08
2023-04-21T01:11:33.055Z,35.88
2023-04-21T01:14:01.381Z,32.65
2023-04-21T01:16:29.714Z,35.80
2023-04-21T01:18:57.730Z,33.92
2023-04-21T01:21:27.144Z,34.17
2023-04-21T01:23:55.318Z,37.13
2023-04-21T01:26:23.617Z,32.53
2023-04-21T01:28:51.380Z,35.97
2023-04-21T01:31:21.046Z,40.65
2023-04-21T01:33:48.746Z,35.75
2023-04-21T01:36:17.420Z,38.25
2023-04-21T01:38:45.647Z,37.50
2023-04-21T01:41:13.551Z,39.78
2023-04-21T01:43:41.445Z,39.65
2023-04-21T01:46:09.305Z,41.25
2023-04-21T01:48:38.866Z,38.88
2023-04-21T01:51:07.611Z,39.92
2023-04-21T01:53:35.371Z,44.65
2023-04-21T01:56:03.226Z,41.08
2023-04-21T01:58:32.461Z,43.50
2023-04-21T02:01:00.338Z,43.70
2023-04-21T02:03:28.450Z,43.20
2023-04-21T02:05:56.273Z,44.67
2023-04-21T02:08:23.994Z,42.65
2023-04-21T02:10:51.908Z,47.33
2023-04-21T02:13:19.588Z,46.55
2023-04-21T02:15:47.434Z,44.63
2023-04-21T02:18:16.872Z,44.88
2023-04-21T02:20:45.343Z,43.42
2023-04-21T02:23:14.826Z,45.05
2023-04-21T02:25:42.470Z,45.55
2023-04-21T02:28:10.765Z,47.28
2023-04-21T02:30:38.975Z,47.75
2023-04-21T02:33:07.842Z,44.83
2023-04-21T02:35:38.811Z,46.65
2023-04-21T02:38:08.887Z,51.28
2023-04-21T02:40:36.710Z,47.65
2023-04-21T02:43:04.549Z,44.85
2023-04-21T02:45:32.706Z,46.10
2023-04-21T02:48:00.543Z,49.20
2023-04-21T02:50:28.288Z,51.55
2023-04-21T02:52:56.084Z,49.20
2023-04-21T02:55:24.877Z,50.92
2023-04-21T02:57:52.668Z,47.15
2023-04-21T03:00:23.309Z,56.75
2023-04-21T03:02:53.699Z,51.42
2023-04-21T03:05:21.619Z,46.03
2023-04-21T03:07:50.872Z,51.80
2023-04-21T03:10:19.548Z,51.28
2023-04-21T03:12:48.118Z,53.20
2023-04-21T03:15:16.966Z,54.45
2023-04-21T03:17:44.836Z,53.90
2023-04-21T03:20:12.861Z,51.88
2023-04-21T03:22:40.786Z,51.78
2023-04-21T03:25:08.416Z,51.28
2023-04-21T03:27:36.437Z,53.80
2023-04-21T03:30:06.823Z,52.63
2023-04-21T03:32:34.663Z,53.95
2023-04-21T03:35:02.346Z,54.50
2023-04-21T03:37:30.067Z,51.63
2023-04-21T03:39:58.050Z,52.83
2023-04-21T03:42:26.167Z,54.70
2023-04-21T03:44:53.846Z,51.35
2023-04-21T03:47:21.535Z,52.55
2023-04-21T03:49:49.382Z,56.58
2023-04-21T03:52:17.060Z,55.13
2023-04-21T03:54:44.768Z,56.47
2023-04-21T03:57:13.606Z,56.10
2023-04-21T03:59:41.612Z,55.40
2023-04-21T04:02:09.990Z,53.17
2023-04-21T04:04:37.851Z,52.25
2023-04-21T04:07:07.486Z,57.17
2023-04-21T04:09:35.345Z,54.88
2023-04-21T04:12:03.486Z,56.70
2023-04-21T04:14:31.346Z,58.38
2023-04-21T04:16:59.715Z,55.42
2023-04-21T04:19:33.792Z,51.38
2023-04-21T04:22:01.680Z,54.17
2023-04-21T04:24:29.617Z,57.08
2023-04-21T04:26:58.130Z,54.95
2023-04-21T04:29:27.088Z,56.95
2023-04-21T04:31:55.019Z,53.05
2023-04-21T04:34:23.302Z,53.70
2023-04-21T04:36:51.431Z,57.33
2023-04-21T04:39:19.422Z,59.58
2023-04-21T04:41:47.230Z,56.95
2023-04-21T04:44:18.079Z,61.70
2023-04-21T04:46:46.172Z,58.35
2023-04-21T04:49:13.958Z,58.33
2023-04-21T04:51:41.658Z,58.75
2023-04-21T04:54:09.413Z,64.45
2023-04-21T04:56:37.628Z,60.95
2023-04-21T04:59:05.414Z,62.60
2023-04-21T05:01:33.059Z,61.40
2023-04-21T05:04:00.944Z,59.53
2023-04-21T05:06:28.872Z,57.83
2023-04-21T05:08:56.622Z,60.78
2023-04-21T05:11:24.404Z,60.85
2023-04-21T05:13:52.049Z,60.92
2023-04-21T05:16:20.655Z,63.55
2023-04-21T05:18:51.038Z,58.30
2023-04-21T05:21:29.146Z,61.95
2023-04-21T05:23:59.212Z,60.88
2023-04-21T05:26:29.390Z,57.45
2023-04-21T05:28:58.235Z,64.18
2023-04-21T05:31:26.395Z,62.28
2023-04-21T05:33:54.310Z,61.00
2023-04-21T05:36:22.116Z,61.10
2023-04-21T05:38:49.836Z,63.17
2023-04-21T05:41:17.519Z,67.68
2023-04-21T05:43:45.197Z,65.68
2023-04-21T05:46:12.913Z,69.97
2023-04-21T05:48:40.639Z,61.15
2023-04-21T05:51:17.496Z,69.55
2023-04-21T05:53:46.191Z,64.25
2023-04-21T05:56:14.596Z,59.85
2023-04-21T05:58:42.348Z,66.68
2023-04-21T06:01:10.339Z,60.67
2023-04-21T06:03:38.315Z,70.60
2023-04-21T06:06:07.373Z,61.33
2023-04-21T06:08:35.054Z,61.42
2023-04-21T06:11:03.020Z,63.88
2023-04-21T06:13:34.295Z,61.13
2023-04-21T06:16:02.843Z,59.55
2023-04-21T06:18:30.643Z,61.80
2023-04-21T06:20:58.397Z,61.38
2023-04-21T06:23:26.135Z,61.55
2023-04-21T06:26:06.979Z,59.88
2023-04-21T06:28:37.257Z,55.20
2023-04-21T06:31:08.507Z,62.25
2023-04-21T06:33:37.064Z,57.75
2023-04-21T06:36:05.335Z,59.28
2023-04-21T06:38:33.228Z,56.50
2023-04-21T06:41:02.421Z,57.58
2023-04-21T06:43:30.477Z,58.88
2023-04-21T06:45:59.007Z,54.03
2023-04-21T06:48:27.789Z,55.08
2023-04-21T06:50:55.829Z,55.40
2023-04-21T06:53:23.463Z,50.92
2023-04-21T06:55:53.528Z,46.83
2023-04-21T06:58:21.598Z,46.95
2023-04-21T07:00:49.612Z,47.22
2023-04-21T07:03:17.487Z,45.22
2023-04-21T07:05:46.128Z,46.17
2023-04-21T07:08:13.918Z,44.08
2023-04-21T07:10:41.618Z,44.53
2023-04-21T07:13:10.088Z,41.50
2023-04-21T07:15:38.084Z,43.97
2023-04-21T07:18:06.489Z,41.17
2023-04-21T07:20:34.447Z,41.20
2023-04-21T07:23:02.142Z,38.75
2023-04-21T07:25:29.800Z,38.92
2023-04-21T07:27:57.617Z,38.78
2023-04-21T07:30:25.530Z,37.47
2023-04-21T07:32:53.483Z,37.35
2023-04-21T07:35:21.517Z,38.78
2023-04-21T07:37:49.327Z,37.53
2023-04-21T07:40:17.292Z,36.10
2023-04-21T07:42:45.153Z,34.20
2023-04-21T07:45:13.007Z,34.00
2023-04-21T07:47:40.758Z,34.67
2023-04-21T07:50:09.467Z,34.60
2023-04-21T07:52:37.205Z,32.95
2023-04-21T07:55:05.353Z,30.83
2023-04-21T07:57:35.132Z,27.98
2023-04-21T08:00:02.877Z,32.60
2023-04-21T08:02:39.999Z,29.27
2023-04-21T08:05:08.874Z,29.67
2023-04-21T08:07:36.859Z,30.83
2023-04-21T08:10:05.947Z,30.38
2023-04-21T08:12:33.771Z,30.38
2023-04-21T08:15:05.785Z,29.10
2023-04-21T08:17:35.517Z,26.95
2023-04-21T08:20:03.966Z,28.60
2023-04-21T08:22:31.769Z,28.60
2023-04-21T08:24:59.586Z,28.25
2023-04-21T08:27:27.274Z,28.40
2023-04-21T08:29:55.150Z,28.95
2023-04-21T08:32:26.575Z,27.85
2023-04-21T08:34:55.197Z,30.23
2023-04-21T08:37:23.446Z,28.52
2023-04-21T08:39:51.275Z,27.00
2023-04-21T08:42:19.940Z,30.95
2023-04-21T08:44:47.669Z,31.35
2023-04-21T08:47:16.108Z,27.17
2023-04-21T08:49:45.381Z,28.63
2023-04-21T08:52:16.536Z,30.58
2023-04-21T08:54:44.428Z,31.70
2023-04-21T08:57:15.984Z,25.67
2023-04-21T08:59:45.822Z,27.35
2023-04-21T09:02:17.047Z,29.27
2023-04-21T09:04:47.947Z,26.98
2023-04-21T09:07:34.644Z,27.60
2023-04-21T09:10:04.941Z,25.63
2023-04-21T09:12:32.690Z,27.38
2023-04-21T09:15:06.398Z,27.02
2023-04-21T09:17:34.267Z,28.02
2023-04-21T09:20:19.501Z,27.05
2023-04-21T09:22:51.229Z,29.50
2023-04-21T09:25:23.168Z,26.60
2023-04-21T09:27:51.090Z,26.92
2023-04-21T09:30:20.728Z,26.08
2023-04-21T09:32:49.563Z,25.55
2023-04-21T09:35:17.562Z,24.88
2023-04-21T09:37:45.323Z,27.00
2023-04-21T09:40:17.790Z,24.92
2023-04-21T09:42:46.688Z,25.48
2023-04-21T09:47:54.606Z,24.00
2023-04-21T09:50:54.334Z,27.67
2023-04-21T09:53:17.062Z,24.17
2023-04-21T09:55:51.615Z,27.42
2023-04-21T09:58:25.394Z,26.25
2023-04-21T10:00:57.525Z,28.95
2023-04-21T10:03:29.196Z,29.58
2023-04-21T10:05:57.120Z,29.13
2023-04-21T10:08:24.798Z,30.17
2023-04-21T10:10:54.345Z,33.55
2023-04-21T10:13:22.644Z,33.58
2023-04-21T10:16:03.665Z,31.55
2023-04-21T10:18:31.631Z,30.13
2023-04-21T10:21:03.311Z,31.52
2023-04-21T10:23:32.871Z,27.88
2023-04-21T10:26:15.045Z,24.73
2023-04-21T10:28:44.013Z,28.45
2023-04-21T10:31:52.559Z,25.05
2023-04-21T10:34:42.080Z,25.38
2023-04-21T10:37:13.261Z,23.52
2023-04-21T10:39:52.526Z,29.55
2023-04-21T10:42:24.558Z,26.25
2023-04-21T10:44:58.420Z,29.17
2023-04-21T10:47:44.320Z,27.20
2023-04-21T10:50:20.350Z,28.95
2023-04-21T10:53:13.428Z,30.33
2023-04-21T10:55:42.529Z,30.73
2023-04-21T10:58:10.360Z,28.67
2023-04-21T11:00:39.284Z,29.10
2023-04-21T11:03:08.720Z,27.20
2023-04-21T11:05:41.854Z,36.17
2023-04-21T11:08:13.103Z,28.45
2023-04-21T11:10:55.662Z,34.22
2023-04-21T11:13:26.852Z,34.25
2023-04-21T11:16:06.162Z,31.67
2023-04-21T11:18:37.354Z,31.17
2023-04-21T11:21:24.781Z,30.65
2023-04-21T11:23:55.867Z,31.20
2023-04-21T11:26:49.908Z,29.85
2023-04-21T11:29:17.950Z,30.13
2023-04-21T11:31:48.996Z,33.85
2023-04-21T11:34:21.171Z,34.60
2023-04-21T11:36:49.382Z,31.85
2023-04-21T11:39:22.202Z,34.58
2023-04-21T11:41:52.143Z,36.22
2023-04-21T11:44:42.570Z,33.47
2023-04-21T11:47:19.748Z,30.75
2023-04-21T11:49:59.357Z,30.80
2023-04-21T11:52:32.988Z,29.33
2023-04-21T11:55:02.910Z,30.98
2023-04-21T11:57:32.943Z,30.10
2023-04-21T12:00:04.851Z,29.73
2023-04-21T12:02:33.843Z,33.10
2023-04-21T12:05:03.471Z,33.15
2023-04-21T12:07:37.145Z,31.65
2023-04-21T12:10:14.651Z,34.72
2023-04-21T12:12:42.744Z,30.25
2023-04-21T12:15:13.157Z,30.50
2023-04-21T12:17:46.277Z,30.90
2023-04-21T12:20:23.961Z,31.00
2023-04-21T12:22:52.449Z,30.85
2023-04-21T12:25:20.440Z,29.58
2023-04-21T12:27:59.100Z,31.23
2023-04-21T12:30:26.867Z,28.63
2023-04-21T12:32:55.879Z,31.60
2023-04-21T12:35:24.233Z,28.98
2023-04-21T12:37:52.054Z,32.88
2023-04-21T12:40:19.739Z,30.63
2023-04-21T12:42:48.864Z,28.80
2023-04-21T12:45:16.659Z,31.58
2023-04-21T12:47:46.773Z,35.72
2023-04-21T12:50:15.628Z,32.50
2023-04-21T12:52:43.409Z,34.35
2023-04-21T12:55:13.453Z,34.25
2023-04-21T12:57:41.210Z,30.55
2023-04-21T13:00:12.559Z,31.10
2023-04-21T13:02:41.787Z,28.70
2023-04-21T13:05:11.841Z,33.60
2023-04-21T13:07:39.846Z,33.38
2023-04-21T13:10:08.534Z,31.50
2023-04-21T13:12:36.627Z,33.20
2023-04-21T13:15:05.235Z,29.83
2023-04-21T13:17:32.997Z,30.15
2023-04-21T13:20:00.942Z,32.60
2023-04-21T13:22:28.913Z,29.80
2023-04-21T13:24:56.556Z,33.72
2023-04-21T13:27:24.285Z,31.83
2023-04-21T13:29:53.949Z,28.45
2023-04-21T13:32:21.840Z,28.35
2023-04-21T13:34:49.612Z,29.02
2023-04-21T13:37:17.443Z,32.17
2023-04-21T13:39:45.165Z,28.67
2023-04-21T13:42:12.966Z,31.92
2023-04-21T13:44:40.660Z,33.00
2023-04-21T13:47:09.390Z,30.38
2023-04-21T13:49:37.228Z,30.25
2023-04-21T13:52:04.966Z,32.33
2023-04-21T13:54:32.868Z,28.02
2023-04-21T13:57:01.921Z,29.67
2023-04-21T13:59:29.851Z,26.48
2023-04-21T14:01:57.792Z,29.05
2023-04-21T14:04:25.813Z,27.48
2023-04-21T14:06:53.772Z,28.90
2023-04-21T14:09:21.611Z,29.45
2023-04-21T14:11:49.342Z,26.40
2023-04-21T14:14:27.662Z,26.98
2023-04-21T14:17:04.971Z,26.42
2023-04-21T14:19:32.865Z,24.38
2023-04-21T14:22:00.981Z,25.77
2023-04-21T14:24:30.157Z,25.83
2023-04-21T14:26:58.723Z,26.33
2023-04-21T14:29:26.444Z,24.13
2023-04-21T14:31:57.725Z,25.98
2023-04-21T14:36:56.892Z,25.90
2023-04-21T14:39:24.782Z,24.35
2023-04-21T14:41:52.510Z,23.15
2023-04-21T14:44:20.258Z,26.40
2023-04-21T14:47:00.996Z,24.73
2023-04-21T14:49:37.238Z,22.55
2023-04-21T14:52:05.532Z,21.10
2023-04-21T14:54:33.459Z,20.65
2023-04-21T14:57:17.493Z,22.30
2023-04-21T14:59:51.565Z,20.70
2023-04-21T15:02:21.816Z,20.00
2023-04-21T15:04:50.390Z,19.45
2023-04-21T15:07:23.326Z,19.00
2023-04-21T15:09:52.712Z,20.98
2023-04-21T15:12:20.695Z,18.48
2023-04-21T15:14:48.695Z,17.70
2023-04-21T15:17:16.524Z,16.67
2023-04-21T15:19:44.435Z,20.30
2023-04-21T15:22:12.669Z,16.48
2023-04-21T15:24:40.555Z,21.33
2023-04-21T15:27:08.216Z,17.75
2023-04-21T15:29:36.308Z,17.60
2023-04-21T15:32:04.311Z,17.70
2023-04-21T15:34:32.079Z,17.90
2023-04-21T15:36:59.771Z,18.42
2023-04-21T15:39:27.642Z,18.80
2023-04-21T15:41:55.938Z,18.85
2023-04-21T15:44:23.603Z,17.60
2023-04-21T15:46:51.311Z,18.48
2023-04-21T15:49:19.005Z,19.98
2023-04-21T15:51:46.951Z,18.83
2023-04-21T15:54:15.800Z,19.38
2023-04-21T15:56:43.493Z,16.77
2023-04-21T15:59:11.400Z,20.13
2023-04-21T16:01:39.210Z,19.75
2023-04-21T16:04:07.137Z,19.75
2023-04-21T16:06:36.133Z,18.08
2023-04-21T16:09:03.930Z,18.35
2023-04-21T16:11:31.736Z,16.00
2023-04-21T16:13:59.497Z,15.35
2023-04-21T16:16:27.434Z,17.13
2023-04-21T16:18:55.297Z,16.73
2023-04-21T16:21:23.181Z,17.33
2023-04-21T16:23:50.921Z,14.98
2023-04-21T16:26:18.743Z,12.32
2023-04-21T16:28:46.594Z,14.48
2023-04-21T16:31:14.465Z,11.85
2023-04-21T16:33:42.271Z,12.32
2023-04-21T16:36:10.056Z,13.98
2023-04-21T16:38:37.864Z,12.73
2023-04-21T16:41:05.815Z,12.95
2023-04-21T16:43:33.614Z,13.48
2023-04-21T16:46:01.287Z,11.77
2023-04-21T16:48:29.093Z,12.82
2023-04-21T16:50:56.753Z,11.88
2023-04-21T16:53:25.721Z,13.05
2023-04-21T16:55:53.542Z,13.23
2023-04-21T16:58:22.099Z,13.02
2023-04-21T17:00:50.803Z,15.65
2023-04-21T17:03:18.963Z,12.65
2023-04-21T17:05:46.847Z,12.88
2023-04-21T17:08:14.675Z,13.07
2023-04-21T17:10:42.403Z,12.77
2023-04-21T17:13:10.206Z,11.80
2023-04-21T17:15:37.868Z,9.20
2023-04-21T17:18:05.766Z,10.45
2023-04-21T17:20:34.958Z,6.57
2023-04-21T17:23:02.594Z,4.88
2023-04-21T17:25:30.371Z,6.28
2023-04-21T17:27:58.025Z,4.95
2023-04-21T17:30:25.887Z,3.58
2023-04-21T17:33:04.140Z,3.40
2023-04-21T17:35:37.939Z,2.22
2023-04-21T17:38:08.369Z,2.78
2023-04-21T17:40:36.243Z,3.20
2023-04-21T17:43:03.864Z,3.35
2023-04-21T17:45:32.090Z,3.53
2023-04-21T17:47:59.773Z,5.47
2023-04-21T17:50:27.704Z,2.65
2023-04-21T17:52:55.345Z,4.10
2023-04-21T17:55:23.249Z,3.65
2023-04-21T17:57:50.997Z,3.40
2023-04-21T18:00:20.840Z,3.20
2023-04-21T18:02:51.867Z,3.45
2023-04-21T18:05:19.651Z,5.53
2023-04-21T18:07:47.514Z,3.60
2023-04-21T18:10:15.517Z,3.75
2023-04-21T18:12:43.220Z,4.57
2023-04-21T18:15:11.374Z,4.35
2023-04-21T18:17:39.050Z,5.38
2023-04-21T18:20:07.826Z,4.72
2023-04-21T18:22:35.520Z,4.32
2023-04-21T18:25:03.686Z,4.78
2023-04-21T18:27:31.470Z,4.38
2023-04-21T18:30:01.951Z,4.05
2023-04-21T18:32:30.602Z,5.38
2023-04-21T18:34:58.862Z,4.32
2023-04-21T18:37:26.944Z,5.63
2023-04-21T18:39:54.589Z,6.55
2023-04-21T18:42:22.439Z,5.90
2023-04-21T18:44:50.176Z,6.70
2023-04-21T18:47:18.056Z,5.18
2023-04-21T18:49:46.570Z,6.63
2023-04-21T18:52:14.402Z,5.60
2023-04-21T18:54:42.297Z,5.22
2023-04-21T18:57:10.147Z,6.32
2023-04-21T18:59:37.859Z,7.53
2023-04-21T19:02:07.311Z,5.68
2023-04-21T19:04:35.382Z,7.20
2023-04-21T19:07:03.591Z,5.93
2023-04-21T19:09:31.409Z,6.32
2023-04-21T19:11:59.316Z,5.88
2023-04-21T19:14:27.950Z,6.40
2023-04-21T19:16:58.012Z,6.43
2023-04-21T19:19:27.229Z,6.50
2023-04-21T19:21:54.991Z,6.82
2023-04-21T19:24:25.639Z,6.50
2023-04-21T19:26:53.474Z,9.95
2023-04-21T19:29:21.209Z,7.03
2023-04-21T19:31:49.031Z,6.68
2023-04-21T19:34:17.054Z,7.03
2023-04-21T19:36:45.260Z,6.55
2023-04-21T19:39:13.089Z,7.25
2023-04-21T19:41:40.738Z,6.50
2023-04-21T19:44:08.417Z,7.90
2023-04-21T19:46:36.371Z,6.03
2023-04-21T19:49:04.204Z,7.60
2023-04-21T19:51:32.722Z,7.18
2023-04-21T19:54:10.774Z,8.15
2023-04-21T19:56:40.706Z,7.70
2023-04-21T19:59:10.932Z,8.50
2023-04-21T20:01:39.031Z,7.55
2023-04-21T20:04:07.404Z,7.05
2023-04-21T20:06:40.031Z,7.10
2023-04-21T20:09:08.153Z,7.40
2023-04-21T20:11:36.453Z,7.05
2023-04-21T20:14:07.819Z,10.32
2023-04-21T20:16:36.718Z,8.48
2023-04-21T20:19:04.955Z,7.38
2023-04-21T20:21:33.250Z,8.63
2023-04-21T20:24:00.947Z,6.85
2023-04-21T20:26:29.288Z,8.27
2023-04-21T20:28:59.805Z,9.07
2023-04-21T20:31:30.472Z,8.50
2023-04-21T20:33:58.133Z,7.75
2023-04-21T20:36:27.588Z,8.85
2023-04-21T20:38:57.227Z,8.25
2023-04-21T20:41:24.950Z,7.70
2023-04-21T20:43:52.899Z,9.35
2023-04-21T20:46:20.633Z,8.40
2023-04-21T20:48:48.260Z,9.35
2023-04-21T20:51:16.296Z,7.15
2023-04-21T20:53:44.127Z,6.93
2023-04-21T20:56:12.345Z,6.00
2023-04-21T20:58:40.213Z,7.15
2023-04-21T21:01:08.003Z,6.90
2023-04-21T21:03:35.781Z,5.00
2023-04-21T21:06:03.823Z,5.25
2023-04-21T21:08:31.673Z,5.95
2023-04-21T21:10:59.372Z,3.80
2023-04-21T21:13:27.058Z,3.53
2023-04-21T21:15:54.781Z,5.20
2023-04-21T21:18:22.597Z,4.25
2023-04-21T21:20:50.305Z,5.07
2023-04-21T21:23:17.896Z,5.00
2023-04-21T21:25:45.581Z,5.47
2023-04-21T21:28:13.240Z,5.25
2023-04-21T21:30:40.878Z,5.53
2023-04-21T21:33:08.635Z,5.78
2023-04-21T21:35:36.441Z,6.68
2023-04-21T21:38:04.337Z,6.85
2023-04-21T21:40:32.253Z,6.55
2023-04-21T21:42:59.890Z,7.03
2023-04-21T21:45:27.835Z,6.55
2023-04-21T21:47:55.797Z,5.80
2023-04-21T21:50:23.565Z,5.80
2023-04-21T21:52:51.327Z,5.97
2023-04-21T21:55:19.005Z,5.82
2023-04-21T21:57:47.171Z,6.88
2023-04-21T22:00:15.997Z,6.80
2023-04-21T22:02:43.753Z,7.10
2023-04-21T22:05:11.666Z,6.22
2023-04-21T22:07:42.933Z,7.30
2023-04-21T22:10:11.699Z,6.05
2023-04-21T22:12:39.445Z,6.78
2023-04-21T22:15:08.041Z,6.97
2023-04-21T22:17:36.200Z,8.45
2023-04-21T22:20:07.476Z,6.88
2023-04-21T22:22:35.970Z,7.97
2023-04-21T22:25:04.160Z,7.35
2023-04-21T22:27:33.632Z,6.75
2023-04-21T22:30:03.307Z,7.78
2023-04-21T22:32:32.257Z,7.18
2023-04-21T22:35:01.310Z,7.57
2023-04-21T22:37:29.383Z,8.95
2023-04-21T22:39:57.612Z,7.28
2023-04-21T22:42:25.289Z,9.20
2023-04-21T22:44:53.010Z,10.10
2023-04-21T22:47:20.811Z,8.00
2023-04-21T22:49:48.552Z,7.00
2023-04-21T22:52:16.217Z,7.40
2023-04-21T22:54:44.031Z,7.53
2023-04-21T22:57:11.700Z,8.10
2023-04-21T22:59:39.621Z,7.57
2023-04-21T23:02:07.815Z,8.45
2023-04-21T23:04:36.017Z,9.20
2023-04-21T23:07:03.897Z,8.43
2023-04-21T23:09:31.617Z,8.70
2023-04-21T23:11:59.447Z,9.00
2023-04-21T23:14:27.645Z,7.75
2023-04-21T23:16:55.543Z,7.35
2023-04-21T23:19:23.229Z,7.43
2023-04-21T23:21:51.226Z,7.70
2023-04-21T23:24:18.937Z,7.72
2023-04-21T23:26:46.587Z,7.38
2023-04-21T23:29:14.361Z,8.95
2023-04-21T23:31:42.202Z,9.57
2023-04-21T23:34:10.002Z,8.32
2023-04-21T23:36:37.700Z,7.60
2023-04-21T23:39:06.188Z,9.18
2023-04-21T23:41:33.907Z,7.05
2023-04-21T23:44:01.894Z,7.80
2023-04-21T23:46:29.704Z,7.95
2023-04-21T23:48:57.413Z,8.55
2023-04-21T23:51:25.062Z,10.20
2023-04-21T23:53:52.816Z,8.48
2023-04-21T23:56:20.969Z,7.55
2023-04-21T23:58:48.700Z,9.48
